sensor_id;sensor_type;location;lat;lon;timestamp;P1;durP1;ratioP1;P2;durP2;ratioP2
58808;SDS011;44579;51.672;7.834;2022-07-23T00:00:20;17.63;;;6.50;;
58808;SDS011;44579;51.672;7.834;2022-07-23T00:05:15;19.23;;;6.30;;
58808;SDS011;44579;51.672;7.834;2022-07-23T00:07:43;18.95;;;5.90;;
58808;SDS011;44579;51.672;7.834;2022-07-23T00:10:10;14.55;;;6.80;;
58808;SDS011;44579;51.672;7.834;2022-07-23T00:12:38;12.80;;;5.78;;
58808;SDS011;44579;51.672;7.834;2022-07-23T00:15:17;19.52;;;6.82;;
58808;SDS011;44579;51.672;7.834;2022-07-23T00:17:45;17.48;;;7.45;;
58808;SDS011;44579;51.672;7.834;2022-07-23T00:20:12;16.35;;;7.85;;
58808;SDS011;44579;51.672;7.834;2022-07-23T00:22:53;17.83;;;8.35;;
58808;SDS011;44579;51.672;7.834;2022-07-23T00:25:21;20.30;;;8.35;;
58808;SDS011;44579;51.672;7.834;2022-07-23T00:27:56;19.70;;;7.80;;
58808;SDS011;44579;51.672;7.834;2022-07-23T00:30:23;17.15;;;8.75;;
58808;SDS011;44579;51.672;7.834;2022-07-23T00:32:58;18.80;;;8.27;;
58808;SDS011;44579;51.672;7.834;2022-07-23T00:35:28;21.70;;;8.18;;
58808;SDS011;44579;51.672;7.834;2022-07-23T00:37:56;22.27;;;9.23;;
58808;SDS011;44579;51.672;7.834;2022-07-23T00:40:27;19.02;;;9.35;;
58808;SDS011;44579;51.672;7.834;2022-07-23T00:42:55;21.05;;;8.23;;
58808;SDS011;44579;51.672;7.834;2022-07-23T00:45:23;28.55;;;9.77;;
58808;SDS011;44579;51.672;7.834;2022-07-23T00:50:17;15.15;;;7.47;;
58808;SDS011;44579;51.672;7.834;2022-07-23T00:52:45;20.75;;;9.85;;
58808;SDS011;44579;51.672;7.834;2022-07-23T00:55:15;22.13;;;8.63;;
58808;SDS011;44579;51.672;7.834;2022-07-23T00:57:45;22.38;;;8.93;;
58808;SDS011;44579;51.672;7.834;2022-07-23T01:00:14;16.73;;;8.75;;
58808;SDS011;44579;51.672;7.834;2022-07-23T01:02:41;18.30;;;9.35;;
58808;SDS011;44579;51.672;7.834;2022-07-23T01:05:09;19.45;;;9.75;;
58808;SDS011;44579;51.672;7.834;2022-07-23T01:07:37;23.02;;;9.50;;
58808;SDS011;44579;51.672;7.834;2022-07-23T01:10:05;25.10;;;9.32;;
58808;SDS011;44579;51.672;7.834;2022-07-23T01:12:53;27.50;;;9.02;;
58808;SDS011;44579;51.672;7.834;2022-07-23T01:15:21;21.48;;;9.77;;
58808;SDS011;44579;51.672;7.834;2022-07-23T01:17:49;16.95;;;8.80;;
58808;SDS011;44579;51.672;7.834;2022-07-23T01:22:44;23.75;;;10.20;;
58808;SDS011;44579;51.672;7.834;2022-07-23T01:25:12;19.65;;;9.13;;
58808;SDS011;44579;51.672;7.834;2022-07-23T01:27:47;22.80;;;10.27;;
58808;SDS011;44579;51.672;7.834;2022-07-23T01:30:14;30.13;;;10.65;;
58808;SDS011;44579;51.672;7.834;2022-07-23T01:35:09;20.25;;;9.50;;
58808;SDS011;44579;51.672;7.834;2022-07-23T01:37:37;19.30;;;9.05;;
58808;SDS011;44579;51.672;7.834;2022-07-23T01:40:06;24.70;;;9.93;;
58808;SDS011;44579;51.672;7.834;2022-07-23T01:42:35;20.65;;;9.82;;
58808;SDS011;44579;51.672;7.834;2022-07-23T01:45:03;27.55;;;10.90;;
58808;SDS011;44579;51.672;7.834;2022-07-23T01:47:32;28.13;;;10.65;;
58808;SDS011;44579;51.672;7.834;2022-07-23T01:50:00;29.33;;;10.95;;
58808;SDS011;44579;51.672;7.834;2022-07-23T01:52:39;27.10;;;11.27;;
58808;SDS011;44579;51.672;7.834;2022-07-23T01:55:07;27.45;;;11.10;;
58808;SDS011;44579;51.672;7.834;2022-07-23T01:57:37;20.10;;;9.98;;
58808;SDS011;44579;51.672;7.834;2022-07-23T02:00:05;21.42;;;10.38;;
58808;SDS011;44579;51.672;7.834;2022-07-23T02:02:38;28.75;;;11.02;;
58808;SDS011;44579;51.672;7.834;2022-07-23T02:05:06;24.90;;;10.82;;
58808;SDS011;44579;51.672;7.834;2022-07-23T02:07:33;25.08;;;11.25;;
58808;SDS011;44579;51.672;7.834;2022-07-23T02:10:01;24.65;;;11.20;;
58808;SDS011;44579;51.672;7.834;2022-07-23T02:14:55;18.85;;;9.93;;
58808;SDS011;44579;51.672;7.834;2022-07-23T02:17:24;26.00;;;12.30;;
58808;SDS011;44579;51.672;7.834;2022-07-23T02:22:21;22.70;;;11.20;;
58808;SDS011;44579;51.672;7.834;2022-07-23T02:27:15;23.98;;;11.90;;
58808;SDS011;44579;51.672;7.834;2022-07-23T02:29:44;32.03;;;12.00;;
58808;SDS011;44579;51.672;7.834;2022-07-23T02:32:13;35.25;;;13.20;;
58808;SDS011;44579;51.672;7.834;2022-07-23T02:34:42;26.13;;;12.50;;
58808;SDS011;44579;51.672;7.834;2022-07-23T02:37:11;42.47;;;13.05;;
58808;SDS011;44579;51.672;7.834;2022-07-23T02:39:38;32.47;;;12.23;;
58808;SDS011;44579;51.672;7.834;2022-07-23T02:44:34;29.20;;;11.40;;
58808;SDS011;44579;51.672;7.834;2022-07-23T02:47:01;31.08;;;13.13;;
58808;SDS011;44579;51.672;7.834;2022-07-23T02:51:56;28.60;;;12.57;;
58808;SDS011;44579;51.672;7.834;2022-07-23T02:54:23;30.73;;;14.23;;
58808;SDS011;44579;51.672;7.834;2022-07-23T02:56:51;35.90;;;13.65;;
58808;SDS011;44579;51.672;7.834;2022-07-23T02:59:19;32.15;;;13.18;;
58808;SDS011;44579;51.672;7.834;2022-07-23T03:01:47;32.15;;;14.27;;
58808;SDS011;44579;51.672;7.834;2022-07-23T03:06:42;31.15;;;11.85;;
58808;SDS011;44579;51.672;7.834;2022-07-23T03:11:38;32.00;;;14.13;;
58808;SDS011;44579;51.672;7.834;2022-07-23T03:14:05;36.08;;;14.75;;
58808;SDS011;44579;51.672;7.834;2022-07-23T03:16:35;39.75;;;16.08;;
58808;SDS011;44579;51.672;7.834;2022-07-23T03:19:03;31.70;;;15.95;;
58808;SDS011;44579;51.672;7.834;2022-07-23T03:21:32;40.70;;;16.33;;
58808;SDS011;44579;51.672;7.834;2022-07-23T03:24:00;44.15;;;16.85;;
58808;SDS011;44579;51.672;7.834;2022-07-23T03:26:29;45.60;;;16.02;;
58808;SDS011;44579;51.672;7.834;2022-07-23T03:28:56;31.60;;;14.45;;
58808;SDS011;44579;51.672;7.834;2022-07-23T03:31:24;33.05;;;14.73;;
58808;SDS011;44579;51.672;7.834;2022-07-23T03:33:51;37.67;;;15.52;;
58808;SDS011;44579;51.672;7.834;2022-07-23T03:36:19;47.70;;;15.95;;
58808;SDS011;44579;51.672;7.834;2022-07-23T03:38:49;44.47;;;15.52;;
58808;SDS011;44579;51.672;7.834;2022-07-23T03:41:17;45.45;;;15.88;;
58808;SDS011;44579;51.672;7.834;2022-07-23T03:46:12;36.83;;;15.20;;
58808;SDS011;44579;51.672;7.834;2022-07-23T03:48:39;36.20;;;16.08;;
58808;SDS011;44579;51.672;7.834;2022-07-23T03:51:07;40.13;;;17.02;;
58808;SDS011;44579;51.672;7.834;2022-07-23T03:53:34;40.80;;;15.70;;
58808;SDS011;44579;51.672;7.834;2022-07-23T03:56:01;37.35;;;16.00;;
58808;SDS011;44579;51.672;7.834;2022-07-23T03:58:29;41.28;;;16.50;;
58808;SDS011;44579;51.672;7.834;2022-07-23T04:03:24;39.08;;;15.13;;
58808;SDS011;44579;51.672;7.834;2022-07-23T04:05:51;36.92;;;14.65;;
58808;SDS011;44579;51.672;7.834;2022-07-23T04:08:20;40.55;;;15.35;;
58808;SDS011;44579;51.672;7.834;2022-07-23T04:10:50;35.28;;;13.65;;
58808;SDS011;44579;51.672;7.834;2022-07-23T04:15:45;34.30;;;14.52;;
58808;SDS011;44579;51.672;7.834;2022-07-23T04:20:51;31.95;;;15.07;;
58808;SDS011;44579;51.672;7.834;2022-07-23T04:23:19;36.10;;;16.75;;
58808;SDS011;44579;51.672;7.834;2022-07-23T04:25:47;37.03;;;14.98;;
58808;SDS011;44579;51.672;7.834;2022-07-23T04:28:15;33.80;;;16.30;;
58808;SDS011;44579;51.672;7.834;2022-07-23T04:33:11;34.30;;;15.02;;
58808;SDS011;44579;51.672;7.834;2022-07-23T04:35:39;34.83;;;14.82;;
58808;SDS011;44579;51.672;7.834;2022-07-23T04:38:12;40.40;;;14.70;;
58808;SDS011;44579;51.672;7.834;2022-07-23T04:40:41;38.95;;;13.80;;
58808;SDS011;44579;51.672;7.834;2022-07-23T04:43:08;38.28;;;14.73;;
58808;SDS011;44579;51.672;7.834;2022-07-23T04:45:42;32.33;;;15.07;;
58808;SDS011;44579;51.672;7.834;2022-07-23T04:48:11;29.77;;;14.18;;
58808;SDS011;44579;51.672;7.834;2022-07-23T04:50:40;28.95;;;13.68;;
58808;SDS011;44579;51.672;7.834;2022-07-23T04:53:21;33.65;;;13.48;;
58808;SDS011;44579;51.672;7.834;2022-07-23T04:55:51;32.63;;;12.63;;
58808;SDS011;44579;51.672;7.834;2022-07-23T04:58:19;30.63;;;11.77;;
58808;SDS011;44579;51.672;7.834;2022-07-23T05:00:47;25.48;;;12.82;;
58808;SDS011;44579;51.672;7.834;2022-07-23T05:03:15;43.15;;;13.93;;
58808;SDS011;44579;51.672;7.834;2022-07-23T05:05:45;28.27;;;13.35;;
58808;SDS011;44579;51.672;7.834;2022-07-23T05:08:16;29.60;;;12.55;;
58808;SDS011;44579;51.672;7.834;2022-07-23T05:10:48;27.95;;;12.68;;
58808;SDS011;44579;51.672;7.834;2022-07-23T05:13:17;30.85;;;12.63;;
58808;SDS011;44579;51.672;7.834;2022-07-23T05:15:45;25.23;;;10.48;;
58808;SDS011;44579;51.672;7.834;2022-07-23T05:18:13;24.27;;;11.23;;
58808;SDS011;44579;51.672;7.834;2022-07-23T05:20:42;30.02;;;11.77;;
58808;SDS011;44579;51.672;7.834;2022-07-23T05:23:13;25.58;;;11.30;;
58808;SDS011;44579;51.672;7.834;2022-07-23T05:25:40;25.63;;;9.75;;
58808;SDS011;44579;51.672;7.834;2022-07-23T05:28:08;21.10;;;10.38;;
58808;SDS011;44579;51.672;7.834;2022-07-23T05:30:37;21.30;;;10.02;;
58808;SDS011;44579;51.672;7.834;2022-07-23T05:33:08;19.17;;;9.65;;
58808;SDS011;44579;51.672;7.834;2022-07-23T05:35:36;23.65;;;10.57;;
58808;SDS011;44579;51.672;7.834;2022-07-23T05:38:26;18.10;;;9.50;;
58808;SDS011;44579;51.672;7.834;2022-07-23T05:40:55;19.88;;;9.23;;
58808;SDS011;44579;51.672;7.834;2022-07-23T05:43:23;24.35;;;9.80;;
58808;SDS011;44579;51.672;7.834;2022-07-23T05:45:51;20.35;;;9.57;;
58808;SDS011;44579;51.672;7.834;2022-07-23T05:48:21;23.85;;;8.93;;
58808;SDS011;44579;51.672;7.834;2022-07-23T05:51:03;24.25;;;9.68;;
58808;SDS011;44579;51.672;7.834;2022-07-23T05:53:34;23.58;;;9.82;;
58808;SDS011;44579;51.672;7.834;2022-07-23T05:56:20;21.00;;;9.45;;
58808;SDS011;44579;51.672;7.834;2022-07-23T05:58:48;23.33;;;9.73;;
58808;SDS011;44579;51.672;7.834;2022-07-23T06:01:17;21.17;;;8.80;;
58808;SDS011;44579;51.672;7.834;2022-07-23T06:04:16;20.05;;;8.43;;
58808;SDS011;44579;51.672;7.834;2022-07-23T06:06:55;18.02;;;8.95;;
58808;SDS011;44579;51.672;7.834;2022-07-23T06:09:23;25.10;;;9.70;;
58808;SDS011;44579;51.672;7.834;2022-07-23T06:14:18;22.92;;;10.25;;
58808;SDS011;44579;51.672;7.834;2022-07-23T06:16:53;18.95;;;9.43;;
58808;SDS011;44579;51.672;7.834;2022-07-23T06:19:21;24.63;;;10.63;;
58808;SDS011;44579;51.672;7.834;2022-07-23T06:21:49;22.95;;;10.50;;
58808;SDS011;44579;51.672;7.834;2022-07-23T06:26:45;24.27;;;9.32;;
58808;SDS011;44579;51.672;7.834;2022-07-23T06:29:13;24.05;;;10.27;;
58808;SDS011;44579;51.672;7.834;2022-07-23T06:31:41;24.40;;;10.13;;
58808;SDS011;44579;51.672;7.834;2022-07-23T06:34:08;21.20;;;10.10;;
58808;SDS011;44579;51.672;7.834;2022-07-23T06:36:36;27.23;;;10.55;;
58808;SDS011;44579;51.672;7.834;2022-07-23T06:39:04;24.13;;;10.20;;
58808;SDS011;44579;51.672;7.834;2022-07-23T06:41:35;21.55;;;10.38;;
58808;SDS011;44579;51.672;7.834;2022-07-23T06:44:02;23.27;;;10.90;;
58808;SDS011;44579;51.672;7.834;2022-07-23T06:46:31;22.30;;;10.38;;
58808;SDS011;44579;51.672;7.834;2022-07-23T06:48:59;26.40;;;11.65;;
58808;SDS011;44579;51.672;7.834;2022-07-23T06:51:28;26.15;;;11.43;;
58808;SDS011;44579;51.672;7.834;2022-07-23T06:53:55;24.00;;;12.60;;
58808;SDS011;44579;51.672;7.834;2022-07-23T06:56:25;25.42;;;12.10;;
58808;SDS011;44579;51.672;7.834;2022-07-23T06:58:53;28.80;;;11.52;;
58808;SDS011;44579;51.672;7.834;2022-07-23T07:01:20;27.05;;;10.15;;
58808;SDS011;44579;51.672;7.834;2022-07-23T07:06:15;31.60;;;11.15;;
58808;SDS011;44579;51.672;7.834;2022-07-23T07:08:42;25.60;;;11.75;;
58808;SDS011;44579;51.672;7.834;2022-07-23T07:11:10;26.67;;;11.30;;
58808;SDS011;44579;51.672;7.834;2022-07-23T07:13:38;30.77;;;11.60;;
58808;SDS011;44579;51.672;7.834;2022-07-23T07:16:05;24.60;;;11.70;;
58808;SDS011;44579;51.672;7.834;2022-07-23T07:18:33;29.30;;;13.02;;
58808;SDS011;44579;51.672;7.834;2022-07-23T07:21:00;29.20;;;13.10;;
58808;SDS011;44579;51.672;7.834;2022-07-23T07:23:28;37.22;;;14.02;;
58808;SDS011;44579;51.672;7.834;2022-07-23T07:25:55;37.70;;;12.88;;
58808;SDS011;44579;51.672;7.834;2022-07-23T07:28:23;32.22;;;13.93;;
58808;SDS011;44579;51.672;7.834;2022-07-23T07:33:17;28.52;;;12.57;;
58808;SDS011;44579;51.672;7.834;2022-07-23T07:35:45;29.08;;;12.88;;
58808;SDS011;44579;51.672;7.834;2022-07-23T07:38:12;25.95;;;11.98;;
58808;SDS011;44579;51.672;7.834;2022-07-23T07:40:40;24.95;;;12.30;;
58808;SDS011;44579;51.672;7.834;2022-07-23T07:45:35;34.00;;;12.20;;
58808;SDS011;44579;51.672;7.834;2022-07-23T07:48:02;24.92;;;11.82;;
58808;SDS011;44579;51.672;7.834;2022-07-23T07:50:30;26.67;;;12.05;;
58808;SDS011;44579;51.672;7.834;2022-07-23T07:55:25;23.05;;;10.80;;
58808;SDS011;44579;51.672;7.834;2022-07-23T07:57:56;24.40;;;9.50;;
58808;SDS011;44579;51.672;7.834;2022-07-23T08:00:23;19.02;;;10.02;;
58808;SDS011;44579;51.672;7.834;2022-07-23T08:05:22;30.65;;;11.02;;
58808;SDS011;44579;51.672;7.834;2022-07-23T08:07:54;28.67;;;11.30;;
58808;SDS011;44579;51.672;7.834;2022-07-23T08:10:22;21.23;;;9.88;;
58808;SDS011;44579;51.672;7.834;2022-07-23T08:12:51;28.58;;;10.27;;
58808;SDS011;44579;51.672;7.834;2022-07-23T08:15:19;27.13;;;11.30;;
58808;SDS011;44579;51.672;7.834;2022-07-23T08:17:47;30.13;;;12.15;;
58808;SDS011;44579;51.672;7.834;2022-07-23T08:20:16;22.55;;;10.80;;
58808;SDS011;44579;51.672;7.834;2022-07-23T08:22:46;23.08;;;10.65;;
58808;SDS011;44579;51.672;7.834;2022-07-23T08:25:14;19.10;;;9.48;;
58808;SDS011;44579;51.672;7.834;2022-07-23T08:27:42;19.83;;;9.10;;
58808;SDS011;44579;51.672;7.834;2022-07-23T08:30:09;21.88;;;10.07;;
58808;SDS011;44579;51.672;7.834;2022-07-23T08:33:20;19.08;;;8.00;;
58808;SDS011;44579;51.672;7.834;2022-07-23T08:35:31;22.83;;;9.13;;
58808;SDS011;44579;51.672;7.834;2022-07-23T08:38:00;18.67;;;7.13;;
58808;SDS011;44579;51.672;7.834;2022-07-23T08:40:29;14.88;;;7.00;;
58808;SDS011;44579;51.672;7.834;2022-07-23T08:42:57;18.45;;;6.85;;
58808;SDS011;44579;51.672;7.834;2022-07-23T08:45:25;19.48;;;7.35;;
58808;SDS011;44579;51.672;7.834;2022-07-23T08:47:53;17.52;;;7.97;;
58808;SDS011;44579;51.672;7.834;2022-07-23T08:50:23;15.13;;;7.05;;
58808;SDS011;44579;51.672;7.834;2022-07-23T08:52:51;14.40;;;7.07;;
58808;SDS011;44579;51.672;7.834;2022-07-23T08:55:20;18.88;;;7.75;;
58808;SDS011;44579;51.672;7.834;2022-07-23T08:57:49;13.80;;;6.63;;
58808;SDS011;44579;51.672;7.834;2022-07-23T09:00:17;17.20;;;7.13;;
58808;SDS011;44579;51.672;7.834;2022-07-23T09:02:45;17.02;;;8.00;;
58808;SDS011;44579;51.672;7.834;2022-07-23T09:05:14;15.20;;;7.20;;
58808;SDS011;44579;51.672;7.834;2022-07-23T09:10:29;15.70;;;5.93;;
58808;SDS011;44579;51.672;7.834;2022-07-23T09:12:58;11.60;;;5.78;;
58808;SDS011;44579;51.672;7.834;2022-07-23T09:15:25;19.85;;;6.35;;
58808;SDS011;44579;51.672;7.834;2022-07-23T09:20:21;14.57;;;5.57;;
58808;SDS011;44579;51.672;7.834;2022-07-23T09:22:49;13.70;;;5.90;;
58808;SDS011;44579;51.672;7.834;2022-07-23T09:25:19;12.80;;;5.20;;
58808;SDS011;44579;51.672;7.834;2022-07-23T09:27:51;14.68;;;5.95;;
58808;SDS011;44579;51.672;7.834;2022-07-23T09:30:24;13.88;;;6.00;;
58808;SDS011;44579;51.672;7.834;2022-07-23T09:33:17;17.52;;;7.15;;
58808;SDS011;44579;51.672;7.834;2022-07-23T09:35:53;17.70;;;7.30;;
58808;SDS011;44579;51.672;7.834;2022-07-23T09:38:22;17.85;;;6.00;;
58808;SDS011;44579;51.672;7.834;2022-07-23T09:41:09;14.57;;;6.00;;
58808;SDS011;44579;51.672;7.834;2022-07-23T09:43:36;13.38;;;6.13;;
58808;SDS011;44579;51.672;7.834;2022-07-23T09:46:23;12.43;;;5.90;;
58808;SDS011;44579;51.672;7.834;2022-07-23T09:48:51;10.15;;;5.38;;
58808;SDS011;44579;51.672;7.834;2022-07-23T09:51:20;14.15;;;4.78;;
58808;SDS011;44579;51.672;7.834;2022-07-23T09:54:01;13.55;;;5.55;;
58808;SDS011;44579;51.672;7.834;2022-07-23T09:56:29;11.82;;;4.93;;
58808;SDS011;44579;51.672;7.834;2022-07-23T09:58:58;15.43;;;5.22;;
58808;SDS011;44579;51.672;7.834;2022-07-23T10:01:54;14.52;;;5.03;;
58808;SDS011;44579;51.672;7.834;2022-07-23T10:04:23;12.73;;;5.15;;
58808;SDS011;44579;51.672;7.834;2022-07-23T10:07:13;10.68;;;4.68;;
58808;SDS011;44579;51.672;7.834;2022-07-23T10:10:07;10.55;;;4.25;;
58808;SDS011;44579;51.672;7.834;2022-07-23T10:13:07;8.10;;;4.85;;
58808;SDS011;44579;51.672;7.834;2022-07-23T10:15:53;12.70;;;5.20;;
58808;SDS011;44579;51.672;7.834;2022-07-23T10:20:48;14.40;;;5.70;;
58808;SDS011;44579;51.672;7.834;2022-07-23T10:23:18;14.43;;;5.05;;
58808;SDS011;44579;51.672;7.834;2022-07-23T10:26:00;14.80;;;4.10;;
58808;SDS011;44579;51.672;7.834;2022-07-23T10:31:14;7.75;;;2.60;;
58808;SDS011;44579;51.672;7.834;2022-07-23T10:34:17;9.38;;;2.90;;
58808;SDS011;44579;51.672;7.834;2022-07-23T10:39:18;10.98;;;3.28;;
58808;SDS011;44579;51.672;7.834;2022-07-23T10:41:46;8.85;;;3.97;;
58808;SDS011;44579;51.672;7.834;2022-07-23T10:44:14;9.85;;;3.03;;
58808;SDS011;44579;51.672;7.834;2022-07-23T10:46:58;8.00;;;2.60;;
58808;SDS011;44579;51.672;7.834;2022-07-23T10:49:49;5.90;;;3.83;;
58808;SDS011;44579;51.672;7.834;2022-07-23T10:52:18;5.65;;;3.20;;
58808;SDS011;44579;51.672;7.834;2022-07-23T10:54:48;8.30;;;3.20;;
58808;SDS011;44579;51.672;7.834;2022-07-23T10:57:24;9.07;;;2.83;;
58808;SDS011;44579;51.672;7.834;2022-07-23T11:02:38;4.50;;;2.45;;
58808;SDS011;44579;51.672;7.834;2022-07-23T11:05:07;6.85;;;2.63;;
58808;SDS011;44579;51.672;7.834;2022-07-23T11:07:36;9.77;;;3.13;;
58808;SDS011;44579;51.672;7.834;2022-07-23T11:10:04;10.77;;;3.28;;
58808;SDS011;44579;51.672;7.834;2022-07-23T11:12:32;6.90;;;2.72;;
58808;SDS011;44579;51.672;7.834;2022-07-23T11:15:12;5.40;;;2.70;;
58808;SDS011;44579;51.672;7.834;2022-07-23T11:25:12;7.25;;;2.33;;
58808;SDS011;44579;51.672;7.834;2022-07-23T11:27:41;6.00;;;2.60;;
58808;SDS011;44579;51.672;7.834;2022-07-23T11:30:09;5.30;;;2.47;;
58808;SDS011;44579;51.672;7.834;2022-07-23T11:32:40;4.47;;;2.38;;
58808;SDS011;44579;51.672;7.834;2022-07-23T11:35:18;5.93;;;2.10;;
58808;SDS011;44579;51.672;7.834;2022-07-23T11:37:47;2.92;;;1.95;;
58808;SDS011;44579;51.672;7.834;2022-07-23T11:40:15;4.75;;;1.75;;
58808;SDS011;44579;51.672;7.834;2022-07-23T11:42:57;7.88;;;2.70;;
58808;SDS011;44579;51.672;7.834;2022-07-23T11:45:29;11.23;;;2.40;;
58808;SDS011;44579;51.672;7.834;2022-07-23T11:47:57;9.32;;;2.45;;
58808;SDS011;44579;51.672;7.834;2022-07-23T11:50:24;6.45;;;2.40;;
58808;SDS011;44579;51.672;7.834;2022-07-23T11:52:53;4.80;;;2.25;;
58808;SDS011;44579;51.672;7.834;2022-07-23T11:55:20;12.15;;;3.38;;
58808;SDS011;44579;51.672;7.834;2022-07-23T11:57:50;9.23;;;2.30;;
58808;SDS011;44579;51.672;7.834;2022-07-23T12:00:19;2.85;;;2.10;;
58808;SDS011;44579;51.672;7.834;2022-07-23T12:02:48;7.97;;;2.17;;
58808;SDS011;44579;51.672;7.834;2022-07-23T12:05:17;7.50;;;2.40;;
58808;SDS011;44579;51.672;7.834;2022-07-23T12:07:45;5.72;;;2.30;;
58808;SDS011;44579;51.672;7.834;2022-07-23T12:10:26;4.88;;;2.15;;
58808;SDS011;44579;51.672;7.834;2022-07-23T12:12:55;5.68;;;2.25;;
58808;SDS011;44579;51.672;7.834;2022-07-23T12:15:26;8.35;;;2.05;;
58808;SDS011;44579;51.672;7.834;2022-07-23T12:17:57;4.93;;;2.38;;
58808;SDS011;44579;51.672;7.834;2022-07-23T12:20:25;6.90;;;2.20;;
58808;SDS011;44579;51.672;7.834;2022-07-23T12:22:55;5.55;;;1.48;;
58808;SDS011;44579;51.672;7.834;2022-07-23T12:25:24;3.30;;;1.98;;
58808;SDS011;44579;51.672;7.834;2022-07-23T12:30:27;5.40;;;1.55;;
58808;SDS011;44579;51.672;7.834;2022-07-23T12:33:00;3.83;;;2.13;;
58808;SDS011;44579;51.672;7.834;2022-07-23T12:35:32;3.78;;;1.70;;
58808;SDS011;44579;51.672;7.834;2022-07-23T12:38:02;3.20;;;1.73;;
58808;SDS011;44579;51.672;7.834;2022-07-23T12:40:52;6.25;;;1.83;;
58808;SDS011;44579;51.672;7.834;2022-07-23T12:43:19;1.95;;;1.00;;
58808;SDS011;44579;51.672;7.834;2022-07-23T12:45:54;3.92;;;1.60;;
58808;SDS011;44579;51.672;7.834;2022-07-23T12:48:26;6.53;;;2.42;;
58808;SDS011;44579;51.672;7.834;2022-07-23T12:50:59;3.08;;;1.75;;
58808;SDS011;44579;51.672;7.834;2022-07-23T12:56:00;4.43;;;2.72;;
58808;SDS011;44579;51.672;7.834;2022-07-23T13:03:56;3.92;;;2.05;;
58808;SDS011;44579;51.672;7.834;2022-07-23T13:06:25;12.45;;;2.50;;
58808;SDS011;44579;51.672;7.834;2022-07-23T13:08:53;2.25;;;1.55;;
58808;SDS011;44579;51.672;7.834;2022-07-23T13:11:20;17.83;;;2.42;;
58808;SDS011;44579;51.672;7.834;2022-07-23T13:16:15;9.10;;;2.20;;
58808;SDS011;44579;51.672;7.834;2022-07-23T13:18:42;7.45;;;2.30;;
58808;SDS011;44579;51.672;7.834;2022-07-23T13:21:10;3.13;;;1.83;;
58808;SDS011;44579;51.672;7.834;2022-07-23T13:23:37;4.53;;;2.00;;
58808;SDS011;44579;51.672;7.834;2022-07-23T13:28:32;2.95;;;1.80;;
58808;SDS011;44579;51.672;7.834;2022-07-23T13:30:59;3.60;;;1.70;;
58808;SDS011;44579;51.672;7.834;2022-07-23T13:33:27;3.42;;;1.50;;
58808;SDS011;44579;51.672;7.834;2022-07-23T13:35:55;2.95;;;1.60;;
58808;SDS011;44579;51.672;7.834;2022-07-23T13:38:22;8.20;;;1.75;;
58808;SDS011;44579;51.672;7.834;2022-07-23T13:40:51;2.65;;;1.80;;
58808;SDS011;44579;51.672;7.834;2022-07-23T13:43:20;5.63;;;1.63;;
58808;SDS011;44579;51.672;7.834;2022-07-23T13:45:48;5.65;;;1.50;;
58808;SDS011;44579;51.672;7.834;2022-07-23T13:48:16;3.83;;;1.35;;
58808;SDS011;44579;51.672;7.834;2022-07-23T13:50:45;6.75;;;1.40;;
58808;SDS011;44579;51.672;7.834;2022-07-23T13:53:14;4.43;;;1.80;;
58808;SDS011;44579;51.672;7.834;2022-07-23T13:55:44;5.32;;;1.40;;
58808;SDS011;44579;51.672;7.834;2022-07-23T13:58:14;5.32;;;1.83;;
58808;SDS011;44579;51.672;7.834;2022-07-23T14:00:46;2.45;;;1.20;;
58808;SDS011;44579;51.672;7.834;2022-07-23T14:05:46;3.35;;;1.55;;
58808;SDS011;44579;51.672;7.834;2022-07-23T14:08:14;3.65;;;1.77;;
58808;SDS011;44579;51.672;7.834;2022-07-23T14:10:42;5.45;;;1.95;;
58808;SDS011;44579;51.672;7.834;2022-07-23T14:13:10;5.18;;;1.80;;
58808;SDS011;44579;51.672;7.834;2022-07-23T14:15:38;3.50;;;1.70;;
58808;SDS011;44579;51.672;7.834;2022-07-23T14:18:06;3.75;;;1.58;;
58808;SDS011;44579;51.672;7.834;2022-07-23T14:20:34;6.15;;;1.67;;
58808;SDS011;44579;51.672;7.834;2022-07-23T14:23:02;4.63;;;1.50;;
58808;SDS011;44579;51.672;7.834;2022-07-23T14:25:32;6.10;;;1.65;;
58808;SDS011;44579;51.672;7.834;2022-07-23T14:30:27;3.10;;;1.50;;
58808;SDS011;44579;51.672;7.834;2022-07-23T14:33:00;2.17;;;1.30;;
58808;SDS011;44579;51.672;7.834;2022-07-23T14:35:28;5.15;;;2.00;;
58808;SDS011;44579;51.672;7.834;2022-07-23T14:37:56;2.85;;;1.50;;
58808;SDS011;44579;51.672;7.834;2022-07-23T14:40:24;4.97;;;1.77;;
58808;SDS011;44579;51.672;7.834;2022-07-23T14:42:54;4.47;;;1.48;;
58808;SDS011;44579;51.672;7.834;2022-07-23T14:45:22;6.90;;;1.60;;
58808;SDS011;44579;51.672;7.834;2022-07-23T14:50:16;3.38;;;2.30;;
58808;SDS011;44579;51.672;7.834;2022-07-23T14:55:10;7.20;;;1.95;;
58808;SDS011;44579;51.672;7.834;2022-07-23T14:57:38;4.90;;;1.70;;
58808;SDS011;44579;51.672;7.834;2022-07-23T15:00:05;3.13;;;1.60;;
58808;SDS011;44579;51.672;7.834;2022-07-23T15:02:34;5.22;;;1.50;;
58808;SDS011;44579;51.672;7.834;2022-07-23T15:05:02;6.35;;;2.03;;
58808;SDS011;44579;51.672;7.834;2022-07-23T15:07:33;3.83;;;1.60;;
58808;SDS011;44579;51.672;7.834;2022-07-23T15:10:00;3.42;;;1.92;;
58808;SDS011;44579;51.672;7.834;2022-07-23T15:12:28;5.25;;;1.90;;
58808;SDS011;44579;51.672;7.834;2022-07-23T15:14:55;4.07;;;1.70;;
58808;SDS011;44579;51.672;7.834;2022-07-23T15:17:23;4.00;;;2.22;;
58808;SDS011;44579;51.672;7.834;2022-07-23T15:19:52;4.95;;;1.90;;
58808;SDS011;44579;51.672;7.834;2022-07-23T15:22:20;6.78;;;1.85;;
58808;SDS011;44579;51.672;7.834;2022-07-23T15:24:47;3.13;;;1.40;;
58808;SDS011;44579;51.672;7.834;2022-07-23T15:27:15;2.42;;;1.75;;
58808;SDS011;44579;51.672;7.834;2022-07-23T15:29:44;4.55;;;2.10;;
58808;SDS011;44579;51.672;7.834;2022-07-23T15:32:12;11.20;;;2.50;;
58808;SDS011;44579;51.672;7.834;2022-07-23T15:34:39;4.18;;;1.75;;
58808;SDS011;44579;51.672;7.834;2022-07-23T15:37:06;6.85;;;1.80;;
58808;SDS011;44579;51.672;7.834;2022-07-23T15:39:37;2.95;;;1.58;;
58808;SDS011;44579;51.672;7.834;2022-07-23T15:42:04;5.07;;;1.33;;
58808;SDS011;44579;51.672;7.834;2022-07-23T15:44:40;3.75;;;1.80;;
58808;SDS011;44579;51.672;7.834;2022-07-23T15:47:11;3.28;;;1.70;;
58808;SDS011;44579;51.672;7.834;2022-07-23T15:49:38;3.05;;;1.77;;
58808;SDS011;44579;51.672;7.834;2022-07-23T15:52:07;3.35;;;1.73;;
58808;SDS011;44579;51.672;7.834;2022-07-23T15:54:38;2.33;;;1.58;;
58808;SDS011;44579;51.672;7.834;2022-07-23T15:57:06;2.20;;;1.45;;
58808;SDS011;44579;51.672;7.834;2022-07-23T15:59:34;4.65;;;1.92;;
58808;SDS011;44579;51.672;7.834;2022-07-23T16:02:02;3.05;;;1.30;;
58808;SDS011;44579;51.672;7.834;2022-07-23T16:04:30;4.53;;;1.42;;
58808;SDS011;44579;51.672;7.834;2022-07-23T16:06:59;3.92;;;1.70;;
58808;SDS011;44579;51.672;7.834;2022-07-23T16:09:26;3.00;;;1.70;;
58808;SDS011;44579;51.672;7.834;2022-07-23T16:11:53;4.53;;;1.75;;
58808;SDS011;44579;51.672;7.834;2022-07-23T16:14:21;4.15;;;1.70;;
58808;SDS011;44579;51.672;7.834;2022-07-23T16:16:49;3.88;;;1.60;;
58808;SDS011;44579;51.672;7.834;2022-07-23T16:19:16;4.00;;;1.80;;
58808;SDS011;44579;51.672;7.834;2022-07-23T16:21:44;8.70;;;1.58;;
58808;SDS011;44579;51.672;7.834;2022-07-23T16:24:11;14.13;;;1.70;;
58808;SDS011;44579;51.672;7.834;2022-07-23T16:26:38;6.22;;;1.45;;
58808;SDS011;44579;51.672;7.834;2022-07-23T16:29:06;4.75;;;1.65;;
58808;SDS011;44579;51.672;7.834;2022-07-23T16:31:45;5.95;;;2.05;;
58808;SDS011;44579;51.672;7.834;2022-07-23T16:34:12;4.32;;;1.88;;